Time;durP1;ratioP1;P1;durP2;ratioP2;P2;SDS_P1;SDS_P2;PMS_P1;PMS_P2;Temp;Humidity;BMP_temperature;BMP_pressure;BME280_temperature;BME280_humidity;BME280_pressure;Samples;Min_cycle;Max_cycle;Signal;HPM_P1;HPM_P2
2021/11/21 00:00:30;;;;;;;13.40;10.20;;;;;;;7.86;84.60;96388.75;1766622;81;21007;-84
2021/11/21 00:02:58;;;;;;;7.92;6.15;;;;;;;7.87;84.74;96388.27;1758919;81;21058;-84
2021/11/21 00:05:24;;;;;;;11.95;8.35;;;;;;;7.88;84.42;96388.58;1762520;81;20990;-84
2021/11/21 00:07:50;;;;;;;12.33;9.08;;;;;;;7.89;84.35;96383.23;1762332;81;21471;-84
2021/11/21 00:10:16;;;;;;;8.03;7.20;;;;;;;7.90;84.39;96378.88;1762544;81;21053;-84
2021/11/21 00:12:41;;;;;;;24.05;19.77;;;;;;;7.89;84.32;96372.89;1762404;81;21361;-84
2021/11/21 00:15:08;;;;;;;20.50;11.65;;;;;;;7.87;84.23;96370.95;1762534;81;20958;-84
2021/11/21 00:17:34;;;;;;;14.98;9.25;;;;;;;7.86;84.17;96364.66;1762671;81;21005;-84
2021/11/21 00:20:00;;;;;;;10.00;7.00;;;;;;;7.86;84.36;96365.95;1762497;81;20935;-84
2021/11/21 00:22:28;;;;;;;7.12;5.55;;;;;;;7.86;84.18;96364.66;1762699;81;21329;-84
2021/11/21 00:24:53;;;;;;;5.42;3.98;;;;;;;7.87;84.15;96366.27;1795268;80;20972;-84
2021/11/21 00:27:21;;;;;;;10.32;8.40;;;;;;;7.90;83.96;96364.16;1792713;80;21338;-84
2021/11/21 00:29:47;;;;;;;6.47;5.58;;;;;;;7.93;84.09;96359.94;1795373;80;20983;-84
2021/11/21 00:32:13;;;;;;;7.12;5.10;;;;;;;7.95;84.05;96360.58;1795340;80;21018;-83
2021/11/21 00:34:39;;;;;;;7.33;5.75;;;;;;;7.96;84.02;96353.62;1795426;80;21397;-84
2021/11/21 00:37:04;;;;;;;6.45;5.40;;;;;;;7.94;83.94;96349.10;1795421;80;21042;-84
2021/11/21 00:39:30;;;;;;;6.97;4.85;;;;;;;7.90;84.13;96349.92;1766711;80;20960;-84
2021/11/21 00:41:56;;;;;;;8.48;5.78;;;;;;;7.91;84.22;96345.56;1795445;80;20908;-84
2021/11/21 00:44:22;;;;;;;6.20;5.55;;;;;;;7.93;84.04;96346.20;1795455;80;21023;-84
2021/11/21 00:46:48;;;;;;;5.53;5.00;;;;;;;7.94;83.94;96338.27;1795441;80;20974;-84
2021/11/21 00:49:17;;;;;;;7.50;6.80;;;;;;;7.95;84.09;96339.07;1795043;80;21437;-84
2021/11/21 00:51:43;;;;;;;12.75;11.08;;;;;;;7.95;84.04;96332.60;1795147;80;20993;-84
2021/11/21 00:55:04;;;;;;;13.13;9.03;;;;;;;7.93;83.97;96328.09;1795353;80;20998;-84
2021/11/21 00:56:37;;;;;;;9.88;8.08;;;;;;;7.91;84.01;96315.81;1770598;80;20964;-84
2021/11/21 00:59:03;;;;;;;8.35;6.58;;;;;;;7.90;84.02;96309.02;1795399;80;21014;-84
2021/11/21 01:01:29;;;;;;;8.45;7.47;;;;;;;7.92;84.04;96308.36;1795489;80;20991;-84
2021/11/21 01:03:56;;;;;;;9.90;8.38;;;;;;;7.93;83.97;96313.37;1795277;80;21385;-84
2021/11/21 01:06:23;;;;;;;12.78;9.20;;;;;;;7.97;84.08;96303.48;1793652;79;21149;-84
2021/11/21 01:08:49;;;;;;;8.83;6.85;;;;;;;8.01;84.20;96303.50;1764386;80;20964;-84
2021/11/21 01:11:15;;;;;;;9.25;7.87;;;;;;;8.02;84.18;96294.76;1732278;83;21479;-84
2021/11/21 01:13:41;;;;;;;160.97;87.67;;;;;;;8.05;84.20;96292.63;1732367;83;21028;-84
2021/11/21 01:16:07;;;;;;;127.60;48.98;;;;;;;8.08;84.17;96281.94;1732380;83;20970;-84
2021/11/21 01:18:34;;;;;;;84.45;34.63;;;;;;;8.09;83.95;96275.79;1732406;83;21396;-84
2021/11/21 01:21:00;;;;;;;74.20;31.52;;;;;;;8.08;83.66;96270.30;1732373;83;20974;-84
2021/11/21 01:23:26;;;;;;;33.40;14.58;;;;;;;8.08;83.76;96266.41;1732404;83;20966;-84
2021/11/21 01:25:51;;;;;;;17.30;9.65;;;;;;;8.09;83.71;96263.34;1732289;83;21037;-84
2021/11/21 01:28:17;;;;;;;14.23;8.30;;;;;;;8.05;83.65;96254.31;1732349;83;21410;-84
2021/11/21 01:30:43;;;;;;;8.65;6.62;;;;;;;7.99;83.72;96244.64;1732429;83;20990;-84
2021/11/21 01:33:09;;;;;;;7.53;6.25;;;;;;;7.97;83.84;96235.76;1732222;83;21318;-83
2021/11/21 01:35:35;;;;;;;7.12;6.08;;;;;;;7.95;83.33;96235.58;1732343;83;20942;-84
2021/11/21 01:38:01;;;;;;;5.90;4.90;;;;;;;7.95;83.37;96240.76;1732315;83;21400;-84
2021/11/21 01:40:27;;;;;;;5.70;4.67;;;;;;;7.93;83.30;96231.88;1732329;83;21030;-84
2021/11/21 01:42:54;;;;;;;7.42;4.50;;;;;;;7.92;83.47;96228.97;1732209;83;21102;-84
2021/11/21 01:45:20;;;;;;;4.85;3.58;;;;;;;7.93;83.36;96231.06;1732328;83;21369;-84
2021/11/21 01:47:46;;;;;;;5.47;4.78;;;;;;;7.89;83.13;96225.92;1732463;83;20970;-84
2021/11/21 01:50:20;;;;;;;9.30;5.92;;;;;;;7.88;82.95;96228.99;1731990;83;21486;-84
2021/11/21 01:52:46;;;;;;;8.33;5.47;;;;;;;7.86;82.47;96225.77;1732331;83;20971;-84
2021/11/21 01:55:12;;;;;;;4.20;3.80;;;;;;;7.85;82.37;96221.58;1732166;83;21033;-84
2021/11/21 01:57:38;;;;;;;5.05;4.20;;;;;;;7.81;82.21;96221.59;1729675;83;21005;-84
2021/11/21 02:00:07;;;;;;;5.20;3.62;;;;;;;7.73;82.11;96212.56;1705691;83;20947;-84
2021/11/21 02:02:33;;;;;;;4.47;3.52;;;;;;;7.65;81.78;96210.83;1732318;83;21468;-84
2021/11/21 02:04:59;;;;;;;5.33;3.40;;;;;;;7.59;81.90;96204.21;1732275;83;21049;-84
2021/11/21 02:07:27;;;;;;;3.20;2.72;;;;;;;7.57;82.00;96200.98;1742655;81;21064;-84
2021/11/21 02:09:53;;;;;;;3.72;3.37;;;;;;;7.52;81.62;96193.26;1756430;81;20977;-84
2021/11/21 02:12:18;;;;;;;4.65;2.98;;;;;;;7.45;81.82;96183.73;1764007;81;21035;-84
2021/11/21 02:14:44;;;;;;;3.50;3.12;;;;;;;7.34;81.56;96177.65;1764021;81;21040;-84
2021/11/21 02:17:10;;;;;;;3.62;3.00;;;;;;;7.28;81.72;96176.52;1764025;81;20961;-84
2021/11/21 02:19:36;;;;;;;4.15;2.98;;;;;;;7.22;81.55;96170.73;1764174;81;21428;-84
2021/11/21 02:22:02;;;;;;;4.17;3.55;;;;;;;7.16;81.61;96176.57;1764029;81;21302;-84
2021/11/21 02:24:28;;;;;;;4.20;3.25;;;;;;;7.08;81.61;96161.07;1764025;81;21336;-84
2021/11/21 02:26:54;;;;;;;4.00;3.15;;;;;;;7.01;81.82;96165.30;1736186;81;21028;-84
2021/11/21 02:29:20;;;;;;;4.83;3.60;;;;;;;6.93;81.90;96160.45;1764174;81;20984;-84
2021/11/21 02:31:46;;;;;;;3.77;3.37;;;;;;;6.86;81.99;96167.73;1764156;81;20961;-84
2021/11/21 02:34:12;;;;;;;3.10;2.80;;;;;;;6.84;82.19;96170.48;1761131;81;21042;-83
2021/11/21 02:36:44;;;;;;;4.10;3.12;;;;;;;6.86;82.17;96164.67;1736211;81;21498;-84
2021/11/21 02:39:12;;;;;;;4.20;3.17;;;;;;;6.78;81.93;96153.53;1726790;83;21013;-84
2021/11/21 02:41:38;;;;;;;3.75;2.77;;;;;;;6.77;82.04;96150.63;1727516;83;21478;-84
2021/11/21 02:44:04;;;;;;;4.62;3.22;;;;;;;6.72;82.05;96149.03;1727486;83;20969;-84
2021/11/21 02:46:34;;;;;;;3.77;3.33;;;;;;;6.62;81.97;96148.70;1731016;83;21359;-84
2021/11/21 02:49:00;;;;;;;3.50;3.02;;;;;;;6.55;82.14;96144.36;1757544;82;20965;-84
2021/11/21 02:51:27;;;;;;;4.87;3.02;;;;;;;6.51;82.25;96141.31;1757407;82;21037;-84
2021/11/21 02:53:53;;;;;;;3.58;3.00;;;;;;;6.50;82.25;96133.22;1757629;82;21415;-84
2021/11/21 02:56:20;;;;;;;5.70;3.42;;;;;;;6.42;82.15;96122.10;1757495;82;21017;-84
2021/11/21 02:58:47;;;;;;;3.90;3.40;;;;;;;6.41;82.51;96117.91;1757679;82;21001;-84
2021/11/21 03:01:20;;;;;;;3.90;3.47;;;;;;;6.39;82.50;96123.72;1757508;82;20989;-84
2021/11/21 03:03:47;;;;;;;3.87;3.27;;;;;;;6.34;82.41;96111.28;1758363;81;21006;-84
2021/11/21 03:06:12;;;;;;;3.80;3.40;;;;;;;6.24;82.65;96111.46;1760455;81;20988;-84
2021/11/21 03:08:39;;;;;;;3.90;3.22;;;;;;;6.18;82.67;96104.38;1760489;81;21008;-83
2021/11/21 03:11:20;;;;;;;3.33;3.00;;;;;;;6.18;82.84;96095.80;1734824;81;21065;-84
2021/11/21 03:13:46;;;;;;;3.77;2.98;;;;;;;6.13;82.75;96091.13;1760210;81;21077;-84
2021/11/21 03:16:12;;;;;;;3.60;3.30;;;;;;;6.10;82.77;96087.59;1760277;81;21077;-84
2021/11/21 03:18:37;;;;;;;5.20;4.00;;;;;;;6.04;83.02;96078.41;1760463;81;21378;-84
2021/11/21 03:21:03;;;;;;;3.65;3.30;;;;;;;6.01;83.30;96076.45;1760310;81;21029;-83
2021/11/21 03:23:29;;;;;;;5.47;4.47;;;;;;;6.00;83.38;96067.10;1760401;81;21372;-83
2021/11/21 03:25:56;;;;;;;4.58;4.17;;;;;;;5.97;83.16;96060.98;1760223;81;21485;-84
2021/11/21 03:28:22;;;;;;;6.70;4.42;;;;;;;6.00;83.37;96059.36;1760282;81;20961;-84
2021/11/21 03:30:48;;;;;;;4.28;3.55;;;;;;;6.10;83.39;96060.99;1760483;81;21069;-84
2021/11/21 03:33:13;;;;;;;3.85;3.05;;;;;;;6.11;83.34;96059.54;1733696;81;21376;-84
2021/11/21 03:35:39;;;;;;;5.78;4.20;;;;;;;6.12;83.11;96061.15;1760471;81;21014;-84
2021/11/21 03:38:05;;;;;;;5.85;5.00;;;;;;;6.10;82.86;96059.22;1760127;81;21392;-84
2021/11/21 03:40:31;;;;;;;6.62;5.50;;;;;;;6.13;82.98;96054.21;1760463;81;21037;-84
2021/11/21 03:42:56;;;;;;;12.15;8.03;;;;;;;6.18;83.00;96047.63;1760274;81;20922;-84
2021/11/21 03:45:22;;;;;;;10.75;6.75;;;;;;;6.24;82.82;96041.00;1760480;81;21103;-84
2021/11/21 03:47:48;;;;;;;8.53;6.55;;;;;;;6.28;82.43;96025.50;1760623;81;20966;-84
2021/11/21 03:50:16;;;;;;;5.65;4.58;;;;;;;6.33;82.30;96028.39;1760399;81;21367;-84
2021/11/21 03:52:42;;;;;;;6.00;4.85;;;;;;;6.36;82.25;96020.34;1760279;81;21063;-84
2021/11/21 03:55:09;;;;;;;5.33;4.83;;;;;;;6.38;82.20;96011.14;1760446;81;20934;-83
2021/11/21 03:57:35;;;;;;;6.15;5.17;;;;;;;6.39;82.28;96015.34;1760460;81;21037;-84
2021/11/21 04:00:05;;;;;;;6.97;5.20;;;;;;;6.40;82.27;96012.59;1760585;81;21016;-84
2021/11/21 04:02:31;;;;;;;6.33;5.67;;;;;;;6.39;81.91;96009.69;1759213;81;20993;-84
2021/11/21 04:04:57;;;;;;;5.87;5.17;;;;;;;6.41;81.97;96016.78;1760560;81;21385;-84
2021/11/21 04:07:22;;;;;;;5.20;4.70;;;;;;;6.37;81.89;96002.59;1760489;81;21155;-83
2021/11/21 04:09:48;;;;;;;5.12;4.45;;;;;;;6.41;81.62;96016.78;1760357;81;21020;-84
2021/11/21 04:12:14;;;;;;;5.35;4.70;;;;;;;6.44;81.78;96016.92;1760330;81;20990;-84
2021/11/21 04:14:40;;;;;;;4.37;3.85;;;;;;;6.44;81.78;96016.92;1760577;81;21446;-84
2021/11/21 04:17:05;;;;;;;4.37;3.72;;;;;;;6.42;81.72;96015.80;1760599;81;21009;-84
2021/11/21 04:19:31;;;;;;;5.40;4.30;;;;;;;6.39;81.76;96012.27;1760502;81;20961;-84
2021/11/21 04:21:57;;;;;;;4.65;3.58;;;;;;;6.36;81.59;96022.92;1760476;81;21012;-84
2021/11/21 04:24:23;;;;;;;5.55;3.47;;;;;;;6.33;81.68;96017.58;1760543;81;21069;-84
2021/11/21 04:26:49;;;;;;;4.85;3.30;;;;;;;6.31;81.41;96024.69;1760487;81;21479;-84
2021/11/21 04:29:15;;;;;;;4.03;3.15;;;;;;;6.27;81.24;96026.47;1760307;81;21025;-84
2021/11/21 04:31:41;;;;;;;3.92;3.22;;;;;;;6.21;81.43;96031.00;1760442;81;21320;-84
2021/11/21 04:34:06;;;;;;;5.20;3.85;;;;;;;6.16;81.31;96026.80;1769488;80;20948;-83
2021/11/21 04:36:33;;;;;;;4.12;3.50;;;;;;;6.06;81.35;96020.53;1771986;80;20996;-84
2021/11/21 04:38:59;;;;;;;4.12;3.30;;;;;;;5.95;81.33;96015.21;1797795;80;21021;-84
2021/11/21 04:41:24;;;;;;;4.05;3.35;;;;;;;5.87;81.59;96004.88;1798225;80;20964;-84
2021/11/21 04:43:50;;;;;;;4.37;3.58;;;;;;;5.83;81.59;96007.44;1797940;80;21569;-84
2021/11/21 04:46:16;;;;;;;4.53;3.95;;;;;;;5.81;81.73;95995.19;1797756;80;21015;-84
2021/11/21 04:48:42;;;;;;;5.62;3.87;;;;;;;5.79;81.71;95992.45;1798006;80;21055;-84
2021/11/21 04:51:08;;;;;;;4.28;3.80;;;;;;;5.78;81.77;95994.23;1798262;80;20973;-84
2021/11/21 04:53:36;;;;;;;4.95;4.22;;;;;;;5.74;81.84;95996.81;1797758;80;20969;-84
2021/11/21 04:56:02;;;;;;;4.05;3.35;;;;;;;5.69;81.82;95993.44;1798193;80;20999;-84
2021/11/21 04:58:28;;;;;;;5.37;3.98;;;;;;;5.64;82.05;95977.63;1798058;80;21021;-84
2021/11/21 05:00:54;;;;;;;4.20;3.62;;;;;;;5.61;81.94;95968.94;1797717;80;21084;-84
2021/11/21 05:03:20;;;;;;;4.20;3.27;;;;;;;5.60;82.09;95966.04;1798040;80;21024;-84
2021/11/21 05:05:46;;;;;;;5.67;4.97;;;;;;;5.58;82.02;95967.17;1798432;80;21004;-84
2021/11/21 05:08:12;;;;;;;5.35;3.58;;;;;;;5.57;81.80;95972.81;1798462;80;21132;-84
2021/11/21 05:10:38;;;;;;;4.22;3.72;;;;;;;5.52;81.93;95969.89;1798661;80;20957;-84
2021/11/21 05:13:04;;;;;;;4.05;3.50;;;;;;;5.43;82.12;95954.92;1798460;80;20949;-84
2021/11/21 05:15:30;;;;;;;4.15;3.47;;;;;;;5.43;82.18;95962.65;1798363;80;21379;-84
2021/11/21 05:17:56;;;;;;;4.28;3.65;;;;;;;5.39;82.41;95967.80;1798727;80;21052;-84
2021/11/21 05:20:22;;;;;;;4.80;3.83;;;;;;;5.33;82.77;95959.41;1798568;80;22076;-84
2021/11/21 05:22:48;;;;;;;5.17;4.25;;;;;;;5.29;82.82;95956.03;1798697;80;21015;-84
2021/11/21 05:25:14;;;;;;;4.58;3.40;;;;;;;5.30;82.99;95951.20;1798513;80;20969;-84
2021/11/21 05:27:47;;;;;;;4.62;4.15;;;;;;;5.33;83.12;95952.16;1798633;80;20985;-84
2021/11/21 05:30:13;;;;;;;4.25;3.75;;;;;;;5.38;83.25;95957.66;1798691;80;21455;-84
2021/11/21 05:32:41;;;;;;;5.87;5.12;;;;;;;5.39;83.33;95954.12;1798328;80;21020;-84
2021/11/21 05:35:07;;;;;;;4.53;3.72;;;;;;;5.44;83.37;95954.44;1776473;80;20972;-84
2021/11/21 05:37:35;;;;;;;5.00;3.85;;;;;;;5.46;83.42;95951.70;1787907;80;21067;-84
2021/11/21 05:40:01;;;;;;;5.05;4.15;;;;;;;5.46;83.49;95950.41;1798449;80;20969;-84
2021/11/21 05:42:28;;;;;;;4.12;3.35;;;;;;;5.45;83.58;95946.22;1798536;80;20938;-84
2021/11/21 05:44:54;;;;;;;4.12;3.37;;;;;;;5.43;83.52;95943.33;1798458;80;21013;-84
2021/11/21 05:47:20;;;;;;;4.25;3.37;;;;;;;5.48;83.62;95936.39;1798616;80;21004;-84
2021/11/21 05:49:46;;;;;;;4.03;3.27;;;;;;;5.48;83.53;95935.11;1798454;80;20922;-84
2021/11/21 05:52:11;;;;;;;4.45;3.25;;;;;;;5.47;83.70;95937.36;1798476;80;21232;-84
2021/11/21 05:54:37;;;;;;;3.87;3.37;;;;;;;5.47;83.64;95933.98;1798473;80;21315;-84
2021/11/21 05:57:05;;;;;;;3.58;3.20;;;;;;;5.41;83.67;95922.07;1798089;80;21012;-84
2021/11/21 05:59:35;;;;;;;3.72;3.33;;;;;;;5.40;83.73;95918.37;1798431;80;21358;-84
2021/11/21 06:01:59;;;;;;;5.20;3.62;;;;;;;5.39;83.74;95912.41;1798124;80;21016;-84
2021/11/21 06:04:24;;;;;;;4.80;3.25;;;;;;;5.41;83.74;95908.38;1798225;80;21367;-83
2021/11/21 06:06:50;;;;;;;3.92;3.17;;;;;;;5.42;83.72;95913.38;1798588;80;21028;-84
2021/11/21 06:09:16;;;;;;;4.65;2.85;;;;;;;5.42;83.67;95915.95;1798385;80;21020;-83
2021/11/21 06:11:41;;;;;;;4.58;3.42;;;;;;;5.39;83.73;95914.98;1798480;80;21020;-84
2021/11/21 06:14:07;;;;;;;4.55;3.55;;;;;;;5.31;83.81;95911.59;1798434;80;21355;-84
2021/11/21 06:16:33;;;;;;;4.20;3.52;;;;;;;5.31;83.81;95911.59;1798284;80;20984;-83
2021/11/21 06:18:59;;;;;;;5.20;3.87;;;;;;;5.34;83.78;95917.70;1798434;80;20965;-84
2021/11/21 06:21:24;;;;;;;4.85;3.35;;;;;;;5.32;83.70;95917.06;1798398;80;20977;-83
2021/11/21 06:23:50;;;;;;;4.15;3.70;;;;;;;5.29;83.49;95916.91;1798376;80;20969;-84
2021/11/21 06:26:19;;;;;;;4.97;3.40;;;;;;;5.29;83.46;95910.95;1798491;80;21071;-84
2021/11/21 06:28:44;;;;;;;3.72;3.10;;;;;;;5.27;83.51;95905.16;1798322;80;21316;-84
2021/11/21 06:31:10;;;;;;;4.97;2.92;;;;;;;5.25;83.62;95897.59;1772415;80;20976;-84
2021/11/21 06:33:35;;;;;;;4.65;2.83;;;;;;;5.24;83.99;95897.27;1798400;80;21036;-84
2021/11/21 06:36:02;;;;;;;3.72;2.83;;;;;;;5.24;83.82;95908.05;1798577;80;21367;-84
2021/11/21 06:38:30;;;;;;;5.05;2.47;;;;;;;5.18;83.97;95901.75;1798248;80;21994;-84
2021/11/21 06:40:56;;;;;;;3.10;2.20;;;;;;;5.20;83.99;95913.18;1798369;80;20976;-84
2021/11/21 06:43:22;;;;;;;3.02;2.02;;;;;;;5.18;84.04;95904.33;1798385;80;21048;-84
2021/11/21 06:45:48;;;;;;;2.85;2.42;;;;;;;5.16;84.03;95901.11;1798377;80;21013;-83
2021/11/21 06:48:15;;;;;;;2.70;2.30;;;;;;;5.12;84.15;95913.99;1798398;80;20961;-84
2021/11/21 06:50:41;;;;;;;3.15;2.83;;;;;;;5.08;84.36;95917.38;1798401;80;22044;-84
2021/11/21 06:53:06;;;;;;;2.37;2.17;;;;;;;5.07;84.56;95912.38;1798415;80;21017;-84
2021/11/21 06:55:32;;;;;;;3.20;2.62;;;;;;;5.07;84.52;95907.23;1798467;80;20948;-84
2021/11/21 06:57:58;;;;;;;3.72;2.52;;;;;;;5.09;84.49;95907.87;1798236;80;21347;-84
2021/11/21 07:00:24;;;;;;;3.67;2.52;;;;;;;5.11;84.47;95904.66;1798422;80;20976;-84
2021/11/21 07:02:51;;;;;;;4.00;2.75;;;;;;;5.12;84.49;95908.84;1798269;80;21013;-84
2021/11/21 07:05:17;;;;;;;3.80;2.60;;;;;;;5.13;84.51;95908.67;1738614;80;20984;-84
2021/11/21 07:07:43;;;;;;;4.60;3.00;;;;;;;5.13;84.75;95915.11;1792987;80;20981;-84
2021/11/21 07:10:11;;;;;;;4.00;2.83;;;;;;;5.15;84.79;95913.67;1795471;80;21053;-84
2021/11/21 07:12:37;;;;;;;5.20;2.85;;;;;;;5.10;84.78;95909.00;1795274;80;20977;-84
2021/11/21 07:15:03;;;;;;;3.92;2.65;;;;;;;5.11;84.86;95919.62;1795277;80;21040;-83
2021/11/21 07:17:29;;;;;;;4.50;2.35;;;;;;;5.12;84.77;95923.81;1795331;80;20972;-84
2021/11/21 07:19:55;;;;;;;3.77;2.70;;;;;;;5.15;84.76;95925.73;1795198;80;21060;-83
2021/11/21 07:22:20;;;;;;;4.55;2.50;;;;;;;5.17;84.83;95929.77;1795310;80;20969;-84
2021/11/21 07:24:46;;;;;;;4.17;2.42;;;;;;;5.15;84.76;95924.45;1795445;80;21057;-84
2021/11/21 07:27:12;;;;;;;2.58;2.20;;;;;;;5.11;84.72;95922.69;1795175;80;21359;-83
2021/11/21 07:29:38;;;;;;;3.67;2.85;;;;;;;5.08;84.83;95920.43;1795436;80;21288;-84
2021/11/21 07:32:06;;;;;;;2.90;2.50;;;;;;;5.06;84.94;95919.79;1795409;80;21138;-84
2021/11/21 07:34:32;;;;;;;3.83;2.90;;;;;;;5.04;84.95;95914.80;1795226;80;20981;-83
2021/11/21 07:36:59;;;;;;;3.42;2.50;;;;;;;5.04;85.00;95912.67;1795052;80;21100;-84
2021/11/21 07:39:26;;;;;;;5.62;3.65;;;;;;;5.06;85.04;95913.34;1795170;80;21404;-84
2021/11/21 07:41:52;;;;;;;4.50;3.65;;;;;;;5.09;85.02;95911.25;1765499;80;21007;-84
2021/11/21 07:44:18;;;;;;;4.78;3.67;;;;;;;5.10;85.10;95908.20;1765408;80;20965;-84
2021/11/21 07:46:44;;;;;;;4.53;3.52;;;;;;;5.13;85.26;95904.01;1795369;80;20993;-84
2021/11/21 07:49:09;;;;;;;3.30;3.00;;;;;;;5.18;85.23;95904.33;1765291;80;20934;-83
2021/11/21 07:51:35;;;;;;;3.22;2.80;;;;;;;5.18;85.20;95899.17;1795343;80;20984;-84
2021/11/21 07:54:01;;;;;;;4.30;3.05;;;;;;;5.22;85.16;95892.77;1795274;80;20924;-83
2021/11/21 07:56:27;;;;;;;3.80;3.33;;;;;;;5.29;85.16;95885.19;1795330;80;21458;-84
2021/11/21 07:58:53;;;;;;;3.20;2.90;;;;;;;5.35;85.00;95880.19;1795514;80;20988;-84
2021/11/21 08:01:18;;;;;;;3.05;2.58;;;;;;;5.36;84.89;95873.26;1795241;80;20976;-84
2021/11/21 08:03:44;;;;;;;3.92;3.25;;;;;;;5.38;84.87;95870.87;1795340;80;21052;-84
2021/11/21 08:06:10;;;;;;;3.02;2.62;;;;;;;5.36;84.64;95868.91;1785973;79;21012;-83
2021/11/21 08:08:37;;;;;;;3.72;2.95;;;;;;;5.31;84.59;95872.47;1789125;80;21178;-83
2021/11/21 08:11:02;;;;;;;3.00;2.52;;;;;;;5.29;84.70;95875.69;1789304;80;21362;-83
2021/11/21 08:13:28;;;;;;;3.22;2.67;;;;;;;5.30;84.65;95879.88;1789357;80;20948;-84
2021/11/21 08:15:55;;;;;;;3.47;2.50;;;;;;;5.27;84.47;95885.83;1789339;80;21326;-84
2021/11/21 08:18:21;;;;;;;4.83;4.17;;;;;;;5.26;84.49;95891.47;1789193;80;20968;-84
2021/11/21 08:20:47;;;;;;;6.25;4.47;;;;;;;5.24;84.48;95884.87;1789360;80;21011;-83
2021/11/21 08:23:12;;;;;;;5.37;3.37;;;;;;;5.23;84.76;95887.13;1789171;80;21023;-83
2021/11/21 08:25:38;;;;;;;4.80;3.30;;;;;;;5.20;84.90;95878.41;1789247;80;21020;-83
2021/11/21 08:28:05;;;;;;;6.00;4.22;;;;;;;5.16;84.90;95864.25;1789325;80;20949;-84
2021/11/21 08:30:35;;;;;;;5.75;3.90;;;;;;;5.16;84.90;95864.25;1789241;80;20968;-84
2021/11/21 08:32:59;;;;;;;6.65;4.17;;;;;;;5.24;84.96;95866.36;1788837;80;21068;-84
2021/11/21 08:35:25;;;;;;;4.28;3.75;;;;;;;5.27;84.88;95864.74;1789380;80;20992;-84
2021/11/21 08:37:51;;;;;;;4.90;3.80;;;;;;;5.29;84.94;95863.30;1789226;80;20976;-84
2021/11/21 08:40:16;;;;;;;5.45;4.65;;;;;;;5.31;84.93;95868.59;1789389;80;21351;-84
2021/11/21 08:42:42;;;;;;;6.80;4.65;;;;;;;5.29;84.84;95867.16;1789473;80;21119;-84
2021/11/21 08:45:08;;;;;;;6.80;4.85;;;;;;;5.26;84.90;95872.63;1789586;80;20996;-84
2021/11/21 08:47:36;;;;;;;5.08;4.08;;;;;;;5.22;85.01;95869.58;1789450;80;21320;-84
2021/11/21 08:50:04;;;;;;;5.75;4.25;;;;;;;5.21;85.03;95875.70;1789515;80;21346;-83
2021/11/21 08:52:30;;;;;;;6.67;5.40;;;;;;;5.27;85.08;95863.45;1789474;80;21058;-83
2021/11/21 08:54:56;;;;;;;7.33;6.10;;;;;;;5.36;85.34;95862.47;1789351;80;20959;-83
2021/11/21 08:57:21;;;;;;;6.58;5.00;;;;;;;5.49;85.41;95859.89;1789550;80;21387;-83
2021/11/21 08:59:47;;;;;;;8.90;6.40;;;;;;;5.57;85.27;95853.45;1789437;80;20948;-84
2021/11/21 09:02:13;;;;;;;7.30;5.58;;;;;;;5.62;85.32;95846.83;1789548;80;21055;-83
2021/11/21 09:04:39;;;;;;;7.40;5.15;;;;;;;5.69;85.40;95841.81;1789821;80;21153;-83
2021/11/21 09:07:05;;;;;;;6.28;4.92;;;;;;;5.75;85.41;95842.95;1792683;80;21087;-84
2021/11/21 09:09:30;;;;;;;6.87;4.28;;;;;;;5.85;85.38;95840.97;1792797;80;21438;-83
2021/11/21 09:11:56;;;;;;;5.17;4.05;;;;;;;5.96;85.36;95841.46;1792644;80;21006;-84
2021/11/21 09:14:24;;;;;;;5.45;4.10;;;;;;;6.05;85.08;95838.87;1792550;80;21042;-84
2021/11/21 09:16:50;;;;;;;5.90;5.08;;;;;;;6.12;84.98;95832.06;1792584;80;20980;-83
2021/11/21 09:19:15;;;;;;;4.08;3.67;;;;;;;6.20;85.23;95829.46;1792768;80;20972;-83
2021/11/21 09:21:42;;;;;;;5.17;3.92;;;;;;;6.30;85.71;95831.34;1792909;80;21362;-84
2021/11/21 09:24:08;;;;;;;6.10;4.83;;;;;;;6.38;85.79;95831.80;1792626;80;21374;-83
2021/11/21 09:26:36;;;;;;;4.17;3.50;;;;;;;6.50;85.53;95837.68;1792353;80;20968;-84
2021/11/21 09:29:02;;;;;;;4.78;3.22;;;;;;;6.58;85.42;95836.84;1792795;80;21424;-84
2021/11/21 09:31:28;;;;;;;12.03;8.63;;;;;;;6.68;85.27;95834.06;1792721;80;21003;-84
2021/11/21 09:33:54;;;;;;;4.90;3.83;;;;;;;6.74;85.17;95841.11;1768398;80;21314;-84
2021/11/21 09:36:20;;;;;;;8.20;6.97;;;;;;;6.81;85.38;95835.08;1792598;80;21000;-84
2021/11/21 09:38:45;;;;;;;16.27;12.50;;;;;;;6.88;85.16;95837.80;1768573;80;21115;-84
2021/11/21 09:41:12;;;;;;;16.25;12.70;;;;;;;6.96;85.03;95834.34;1792615;80;21031;-84
2021/11/21 09:43:38;;;;;;;14.87;12.47;;;;;;;7.08;85.07;95832.97;1792885;80;20983;-83
2021/11/21 09:46:03;;;;;;;21.70;15.53;;;;;;;7.26;85.41;95830.08;1742996;80;20959;-84
2021/11/21 09:48:30;;;;;;;22.65;16.37;;;;;;;7.42;85.01;95825.58;1792724;80;20974;-84
2021/11/21 09:50:56;;;;;;;21.48;15.55;;;;;;;7.60;84.68;95822.66;1793702;80;21000;-84
2021/11/21 09:53:22;;;;;;;17.77;13.68;;;;;;;7.64;82.88;95827.78;1798470;80;20937;-83
2021/11/21 09:55:48;;;;;;;19.45;14.65;;;;;;;7.68;82.60;95826.97;1798464;80;21324;-84
2021/11/21 09:58:13;;;;;;;21.25;15.15;;;;;;;7.70;83.32;95817.24;1798556;80;20984;-83
2021/11/21 10:00:40;;;;;;;17.87;13.93;;;;;;;7.90;83.17;95825.27;1798454;80;21008;-84
2021/11/21 10:03:10;;;;;;;19.80;15.40;;;;;;;8.06;83.35;95819.91;1798482;80;21924;-84
2021/11/21 10:05:39;;;;;;;17.50;13.18;;;;;;;8.19;82.79;95814.91;1798151;80;21012;-84
2021/11/21 10:08:12;;;;;;;16.20;12.58;;;;;;;8.28;82.38;95817.70;1798747;79;21416;-84
2021/11/21 10:10:46;;;;;;;15.03;12.45;;;;;;;8.29;81.66;95816.71;1798565;80;21016;-84
2021/11/21 10:13:40;;;;;;;13.75;11.00;;;;;;;8.30;81.89;95816.25;1798553;80;21324;-84
2021/11/21 10:16:30;;;;;;;14.75;11.18;;;;;;;8.30;81.82;95817.05;1798598;80;20972;-84
2021/11/21 10:19:02;;;;;;;14.13;11.15;;;;;;;8.31;80.92;95807.50;1798255;80;21409;-84
2021/11/21 10:21:31;;;;;;;15.00;12.33;;;;;;;8.36;80.50;95809.08;1798537;80;21001;-84
2021/11/21 10:24:28;;;;;;;14.83;10.80;;;;;;;8.35;81.11;95814.74;1798404;80;20957;-83
2021/11/21 10:27:09;;;;;;;14.45;11.50;;;;;;;8.41;81.31;95810.13;1798382;80;20964;-84
2021/11/21 10:29:45;;;;;;;9.68;7.65;;;;;;;8.48;80.83;95811.51;1798730;80;21007;-84
2021/11/21 10:32:24;;;;;;;16.50;12.63;;;;;;;8.52;80.27;95812.74;1798483;80;21067;-84
2021/11/21 10:34:55;;;;;;;21.10;16.07;;;;;;;8.48;80.58;95805.04;1797810;80;21096;-84
2021/11/21 10:37:30;;;;;;;17.32;14.50;;;;;;;8.50;80.51;95807.44;1798649;80;21052;-84
2021/11/21 10:40:01;;;;;;;16.85;13.25;;;;;;;8.51;80.15;95812.93;1798557;80;21498;-84
2021/11/21 10:42:28;;;;;;;19.95;15.95;;;;;;;8.48;80.28;95810.22;1798387;80;20933;-84
2021/11/21 10:44:54;;;;;;;21.10;16.10;;;;;;;8.48;80.78;95809.41;1749380;80;20961;-84
2021/11/21 10:47:20;;;;;;;19.25;14.83;;;;;;;8.47;80.46;95803.44;1798671;80;20984;-84
2021/11/21 10:49:52;;;;;;;18.92;14.40;;;;;;;8.52;80.77;95797.20;1795064;80;21543;-84
2021/11/21 10:52:21;;;;;;;18.65;14.28;;;;;;;8.62;81.02;95794.30;1783915;80;21399;-84
2021/11/21 10:54:56;;;;;;;18.70;14.50;;;;;;;8.65;80.13;95790.08;1761084;81;20981;-84
2021/11/21 10:57:29;;;;;;;18.32;14.63;;;;;;;8.63;80.40;95781.69;1761178;81;21068;-84
2021/11/21 10:59:59;;;;;;;18.67;14.95;;;;;;;8.65;80.51;95782.31;1761340;81;21002;-84
2021/11/21 11:02:43;;;;;;;18.73;15.08;;;;;;;8.70;80.09;95780.76;1761244;81;21048;-84
2021/11/21 11:05:12;;;;;;;18.02;14.18;;;;;;;8.81;80.14;95771.70;1760256;81;21080;-83
2021/11/21 11:07:42;;;;;;;20.82;15.93;;;;;;;8.94;80.04;95767.91;1757381;81;21005;-83
2021/11/21 11:10:12;;;;;;;19.37;15.72;;;;;;;9.00;79.59;95758.61;1757426;82;21029;-83
2021/11/21 11:12:38;;;;;;;18.85;14.30;;;;;;;9.00;79.33;95761.20;1757383;82;21004;-83
2021/11/21 11:15:05;;;;;;;14.83;11.85;;;;;;;8.97;78.69;95752.02;1757374;81;20985;-83
2021/11/21 11:17:31;;;;;;;14.38;12.23;;;;;;;9.02;77.91;95754.84;1757471;82;21057;-83
2021/11/21 11:19:58;;;;;;;22.48;14.68;;;;;;;9.12;78.25;95740.77;1757679;82;21061;-83
2021/11/21 11:22:26;;;;;;;15.48;12.65;;;;;;;9.21;78.25;95735.74;1757478;82;20974;-83
2021/11/21 11:24:55;;;;;;;16.20;12.25;;;;;;;9.31;78.15;95745.30;1757444;82;21414;-83
2021/11/21 11:27:36;;;;;;;13.78;11.83;;;;;;;9.42;77.44;95749.14;1757452;82;20978;-83
2021/11/21 11:30:03;;;;;;;15.18;11.85;;;;;;;9.49;76.94;95739.13;1757486;82;21351;-83
2021/11/21 11:32:36;;;;;;;14.15;11.20;;;;;;;9.52;77.00;95736.15;1757364;82;21001;-83
2021/11/21 11:35:20;;;;;;;14.03;11.75;;;;;;;9.58;77.06;95728.09;1757667;82;21077;-83
2021/11/21 11:37:51;;;;;;;14.93;10.90;;;;;;;9.68;77.02;95727.76;1757361;82;21022;-83